sensor_id;sensor_type;location;lat;lon;timestamp;pressure;altitude;pressure_sealevel;temperature;humidity
61039;BME280;46919;45.816;3.104;2022-12-10T00:00:39;96692.78;;;-0.73;100.00
61039;BME280;46919;45.816;3.104;2022-12-10T00:03:04;96698.72;;;-0.70;100.00
61039;BME280;46919;45.816;3.104;2022-12-10T00:05:30;96695.69;;;-0.67;100.00
61039;BME280;46919;45.816;3.104;2022-12-10T00:07:58;96688.84;;;-0.62;100.00
61039;BME280;46919;45.816;3.104;2022-12-10T00:10:23;96689.22;;;-0.65;100.00
61039;BME280;46919;45.816;3.104;2022-12-10T00:12:49;96679.78;;;-0.67;100.00
61039;BME280;46919;45.816;3.104;2022-12-10T00:15:14;96685.81;;;-0.74;100.00
61039;BME280;46919;45.816;3.104;2022-12-10T00:17:39;96676.41;;;-0.76;100.00
61039;BME280;46919;45.816;3.104;2022-12-10T00:20:05;96679.06;;;-0.76;100.00
61039;BME280;46919;45.816;3.104;2022-12-10T00:22:31;96674.75;;;-0.77;100.00
61039;BME280;46919;45.816;3.104;2022-12-10T00:24:56;96672.09;;;-0.77;100.00
61039;BME280;46919;45.816;3.104;2022-12-10T00:27:22;96677.13;;;-0.82;100.00
61039;BME280;46919;45.816;3.104;2022-12-10T00:29:47;96682.72;;;-0.77;100.00
61039;BME280;46919;45.816;3.104;2022-12-10T00:32:12;96674.75;;;-0.77;100.00
61039;BME280;46919;45.816;3.104;2022-12-10T00:34:38;96667.06;;;-0.72;100.00
61039;BME280;46919;45.816;3.104;2022-12-10T00:37:03;96672.00;;;-0.69;100.00
61039;BME280;46919;45.816;3.104;2022-12-10T00:39:28;96675.28;;;-0.67;100.00
61039;BME280;46919;45.816;3.104;2022-12-10T00:41:54;96678.84;;;-0.75;100.00
61039;BME280;46919;45.816;3.104;2022-12-10T00:44:19;96680.50;;;-0.74;100.00
61039;BME280;46919;45.816;3.104;2022-12-10T00:46:45;96684.16;;;-0.75;100.00
61039;BME280;46919;45.816;3.104;2022-12-10T00:49:10;96682.53;;;-0.76;100.00
61039;BME280;46919;45.816;3.104;2022-12-10T00:51:38;96693.41;;;-0.85;100.00
61039;BME280;46919;45.816;3.104;2022-12-10T00:54:03;96691.75;;;-0.86;100.00
61039;BME280;46919;45.816;3.104;2022-12-10T00:56:31;96697.06;;;-0.86;100.00
61039;BME280;46919;45.816;3.104;2022-12-10T00:58:58;96699.91;;;-0.88;100.00
61039;BME280;46919;45.816;3.104;2022-12-10T01:01:26;96707.31;;;-0.83;100.00
61039;BME280;46919;45.816;3.104;2022-12-10T01:03:55;96708.31;;;-0.84;100.00
61039;BME280;46919;45.816;3.104;2022-12-10T01:06:30;96712.97;;;-0.86;100.00
61039;BME280;46919;45.816;3.104;2022-12-10T01:08:58;96713.34;;;-0.89;100.00
61039;BME280;46919;45.816;3.104;2022-12-10T01:11:28;96722.03;;;-0.96;100.00
61039;BME280;46919;45.816;3.104;2022-12-10T01:13:54;96715.38;;;-0.92;100.00
61039;BME280;46919;45.816;3.104;2022-12-10T01:16:21;96726.78;;;-0.91;100.00
61039;BME280;46919;45.816;3.104;2022-12-10T01:18:47;96717.13;;;-0.84;100.00
61039;BME280;46919;45.816;3.104;2022-12-10T01:21:18;96721.56;;;-0.84;100.00
61039;BME280;46919;45.816;3.104;2022-12-10T01:23:45;96725.88;;;-0.83;100.00
61039;BME280;46919;45.816;3.104;2022-12-10T01:26:16;96717.94;;;-0.83;100.00
61039;BME280;46919;45.816;3.104;2022-12-10T01:28:42;96722.28;;;-0.91;100.00
61039;BME280;46919;45.816;3.104;2022-12-10T01:31:13;96731.28;;;-0.92;100.00
61039;BME280;46919;45.816;3.104;2022-12-10T01:33:39;96739.88;;;-0.89;100.00
61039;BME280;46919;45.816;3.104;2022-12-10T01:36:13;96745.16;;;-0.89;100.00
61039;BME280;46919;45.816;3.104;2022-12-10T01:38:39;96743.16;;;-0.87;100.00
61039;BME280;46919;45.816;3.104;2022-12-10T01:41:05;96749.47;;;-0.88;100.00
61039;BME280;46919;45.816;3.104;2022-12-10T01:46:40;96766.38;;;-0.89;100.00
61039;BME280;46919;45.816;3.104;2022-12-10T01:49:11;96753.84;;;-0.96;100.00
61039;BME280;46919;45.816;3.104;2022-12-10T01:51:39;96755.31;;;-0.93;100.00
61039;BME280;46919;45.816;3.104;2022-12-10T01:54:09;96758.16;;;-0.95;100.00
61039;BME280;46919;45.816;3.104;2022-12-10T01:56:38;96757.53;;;-0.97;100.00
61039;BME280;46919;45.816;3.104;2022-12-10T01:59:06;96752.22;;;-0.97;100.00
61039;BME280;46919;45.816;3.104;2022-12-10T02:01:40;96766.75;;;-0.93;100.00
61039;BME280;46919;45.816;3.104;2022-12-10T02:09:38;96777.81;;;-0.89;100.00
61039;BME280;46919;45.816;3.104;2022-12-10T02:12:16;96778.16;;;-0.92;100.00
61039;BME280;46919;45.816;3.104;2022-12-10T02:14:57;96789.69;;;-1.00;100.00
61039;BME280;46919;45.816;3.104;2022-12-10T02:18:18;96791.16;;;-0.97;100.00
61039;BME280;46919;45.816;3.104;2022-12-10T02:20:42;96788.22;;;-1.02;100.00
61039;BME280;46919;45.816;3.104;2022-12-10T02:23:18;96791.94;;;-1.12;100.00
61039;BME280;46919;45.816;3.104;2022-12-10T02:25:53;96791.75;;;-1.10;100.00
61039;BME280;46919;45.816;3.104;2022-12-10T02:28:51;96791.41;;;-1.07;100.00
61039;BME280;46919;45.816;3.104;2022-12-10T02:31:21;96787.84;;;-1.14;100.00
61039;BME280;46919;45.816;3.104;2022-12-10T02:33:51;96800.41;;;-1.16;100.00
61039;BME280;46919;45.816;3.104;2022-12-10T02:36:18;96792.47;;;-1.16;100.00
61039;BME280;46919;45.816;3.104;2022-12-10T02:38:47;96786.59;;;-1.26;100.00
61039;BME280;46919;45.816;3.104;2022-12-10T02:41:18;96789.72;;;-1.23;100.00
61039;BME280;46919;45.816;3.104;2022-12-10T02:43:46;96789.88;;;-1.24;100.00
61039;BME280;46919;45.816;3.104;2022-12-10T02:46:13;96797.13;;;-1.18;100.00
61039;BME280;46919;45.816;3.104;2022-12-10T02:48:40;96800.59;;;-1.18;100.00
61039;BME280;46919;45.816;3.104;2022-12-10T02:51:06;96794.38;;;-1.25;100.00
61039;BME280;46919;45.816;3.104;2022-12-10T02:53:31;96808.78;;;-1.28;100.00
61039;BME280;46919;45.816;3.104;2022-12-10T02:56:22;96808.78;;;-1.28;100.00
61039;BME280;46919;45.816;3.104;2022-12-10T02:59:33;96812.09;;;-1.25;100.00
61039;BME280;46919;45.816;3.104;2022-12-10T03:02:15;96822.41;;;-1.31;100.00
61039;BME280;46919;45.816;3.104;2022-12-10T03:07:36;96808.97;;;-1.29;100.00
61039;BME280;46919;45.816;3.104;2022-12-10T03:10:14;96815.81;;;-1.35;100.00
61039;BME280;46919;45.816;3.104;2022-12-10T03:12:47;96807.69;;;-1.33;100.00
61039;BME280;46919;45.816;3.104;2022-12-10T03:15:15;96811.69;;;-1.37;100.00
61039;BME280;46919;45.816;3.104;2022-12-10T03:17:43;96819.81;;;-1.39;100.00
61039;BME280;46919;45.816;3.104;2022-12-10T03:20:13;96820.63;;;-1.38;100.00
61039;BME280;46919;45.816;3.104;2022-12-10T03:22:41;96817.16;;;-1.39;100.00
61039;BME280;46919;45.816;3.104;2022-12-10T03:25:10;96814.84;;;-1.42;100.00
61039;BME280;46919;45.816;3.104;2022-12-10T03:27:39;96818.50;;;-1.43;100.00
61039;BME280;46919;45.816;3.104;2022-12-10T03:30:05;96817.38;;;-1.49;100.00
61039;BME280;46919;45.816;3.104;2022-12-10T03:32:31;96814.63;;;-1.55;100.00
61039;BME280;46919;45.816;3.104;2022-12-10T03:34:58;96821.19;;;-1.51;100.00
61039;BME280;46919;45.816;3.104;2022-12-10T03:37:26;96829.44;;;-1.46;100.00
61039;BME280;46919;45.816;3.104;2022-12-10T03:39:52;96828.50;;;-1.53;100.00
61039;BME280;46919;45.816;3.104;2022-12-10T03:42:18;96821.56;;;-1.54;100.00
61039;BME280;46919;45.816;3.104;2022-12-10T03:44:43;96832.16;;;-1.54;100.00
61039;BME280;46919;45.816;3.104;2022-12-10T03:47:12;96832.81;;;-1.52;100.00
61039;BME280;46919;45.816;3.104;2022-12-10T03:49:38;96831.84;;;-1.59;100.00
61039;BME280;46919;45.816;3.104;2022-12-10T03:52:04;96836.00;;;-1.57;100.00
61039;BME280;46919;45.816;3.104;2022-12-10T03:54:29;96842.16;;;-1.65;100.00
61039;BME280;46919;45.816;3.104;2022-12-10T03:56:55;96846.44;;;-1.64;100.00
61039;BME280;46919;45.816;3.104;2022-12-10T03:59:20;96846.78;;;-1.67;100.00
61039;BME280;46919;45.816;3.104;2022-12-10T04:01:46;96844.13;;;-1.67;100.00
61039;BME280;46919;45.816;3.104;2022-12-10T04:04:12;96845.50;;;-1.71;100.00
61039;BME280;46919;45.816;3.104;2022-12-10T04:06:39;96853.63;;;-1.72;100.00
61039;BME280;46919;45.816;3.104;2022-12-10T04:09:05;96846.47;;;-1.72;100.00
61039;BME280;46919;45.816;3.104;2022-12-10T04:11:30;96853.44;;;-1.71;100.00
61039;BME280;46919;45.816;3.104;2022-12-10T04:13:56;96862.72;;;-1.75;100.00
61039;BME280;46919;45.816;3.104;2022-12-10T04:16:40;96865.03;;;-1.72;100.00
61039;BME280;46919;45.816;3.104;2022-12-10T04:19:08;96869.03;;;-1.76;100.00
61039;BME280;46919;45.816;3.104;2022-12-10T04:21:35;96874.97;;;-1.74;100.00
61039;BME280;46919;45.816;3.104;2022-12-10T04:24:22;96881.59;;;-1.78;100.00
61039;BME280;46919;45.816;3.104;2022-12-10T04:29:37;96883.91;;;-1.75;100.00
61039;BME280;46919;45.816;3.104;2022-12-10T04:32:03;96892.53;;;-1.81;100.00
61039;BME280;46919;45.816;3.104;2022-12-10T04:34:28;96890.56;;;-1.87;100.00
61039;BME280;46919;45.816;3.104;2022-12-10T04:36:54;96889.75;;;-1.88;100.00
61039;BME280;46919;45.816;3.104;2022-12-10T04:39:19;96894.56;;;-1.91;100.00
61039;BME280;46919;45.816;3.104;2022-12-10T04:41:47;96895.22;;;-1.89;100.00
61039;BME280;46919;45.816;3.104;2022-12-10T04:44:13;96897.69;;;-1.88;100.00
61039;BME280;46919;45.816;3.104;2022-12-10T04:46:38;96896.88;;;-1.88;100.00
61039;BME280;46919;45.816;3.104;2022-12-10T04:49:05;96899.53;;;-1.88;100.00
61039;BME280;46919;45.816;3.104;2022-12-10T04:51:31;96903.84;;;-1.95;100.00
61039;BME280;46919;45.816;3.104;2022-12-10T04:53:56;96902.53;;;-1.99;100.00
61039;BME280;46919;45.816;3.104;2022-12-10T04:56:22;96900.38;;;-1.96;100.00
61039;BME280;46919;45.816;3.104;2022-12-10T04:58:47;96909.13;;;-1.95;100.00
61039;BME280;46919;45.816;3.104;2022-12-10T05:01:13;96908.81;;;-1.92;100.00
61039;BME280;46919;45.816;3.104;2022-12-10T05:03:38;96911.63;;;-1.94;100.00
61039;BME280;46919;45.816;3.104;2022-12-10T05:06:07;96917.44;;;-1.90;100.00
61039;BME280;46919;45.816;3.104;2022-12-10T05:08:34;96915.75;;;-1.91;100.00
61039;BME280;46919;45.816;3.104;2022-12-10T05:11:01;96912.47;;;-1.93;100.00
61039;BME280;46919;45.816;3.104;2022-12-10T05:13:27;96926.69;;;-1.94;100.00
61039;BME280;46919;45.816;3.104;2022-12-10T05:15:52;96930.16;;;-1.94;100.00
61039;BME280;46919;45.816;3.104;2022-12-10T05:18:18;96927.03;;;-1.97;100.00
61039;BME280;46919;45.816;3.104;2022-12-10T05:20:43;96935.28;;;-1.92;100.00
61039;BME280;46919;45.816;3.104;2022-12-10T05:23:09;96944.25;;;-1.93;100.00
61039;BME280;46919;45.816;3.104;2022-12-10T05:26:09;96943.41;;;-1.94;100.00
61039;BME280;46919;45.816;3.104;2022-12-10T05:28:55;96955.81;;;-1.94;100.00
61039;BME280;46919;45.816;3.104;2022-12-10T05:31:23;96959.13;;;-2.01;100.00
61039;BME280;46919;45.816;3.104;2022-12-10T05:33:49;96953.03;;;-2.01;100.00
61039;BME280;46919;45.816;3.104;2022-12-10T05:36:18;96958.66;;;-2.04;100.00
61039;BME280;46919;45.816;3.104;2022-12-10T05:38:44;96961.13;;;-2.03;100.00
61039;BME280;46919;45.816;3.104;2022-12-10T05:41:30;96964.78;;;-2.04;100.00
61039;BME280;46919;45.816;3.104;2022-12-10T05:43:57;96966.75;;;-2.06;100.00
61039;BME280;46919;45.816;3.104;2022-12-10T05:46:28;96966.28;;;-2.09;100.00
61039;BME280;46919;45.816;3.104;2022-12-10T05:48:54;96970.72;;;-2.10;100.00
61039;BME280;46919;45.816;3.104;2022-12-10T05:51:25;96975.03;;;-2.09;100.00
61039;BME280;46919;45.816;3.104;2022-12-10T05:53:52;96976.03;;;-2.10;100.00
61039;BME280;46919;45.816;3.104;2022-12-10T05:56:20;96981.31;;;-2.10;100.00
61039;BME280;46919;45.816;3.104;2022-12-10T05:58:48;96985.31;;;-2.14;100.00
61039;BME280;46919;45.816;3.104;2022-12-10T06:01:20;96982.84;;;-2.15;100.00
61039;BME280;46919;45.816;3.104;2022-12-10T06:03:46;96983.97;;;-2.18;100.00
61039;BME280;46919;45.816;3.104;2022-12-10T06:06:12;96993.75;;;-2.19;100.00
61039;BME280;46919;45.816;3.104;2022-12-10T06:08:38;96996.41;;;-2.27;100.00
61039;BME280;46919;45.816;3.104;2022-12-10T06:11:06;97004.66;;;-2.22;100.00
61039;BME280;46919;45.816;3.104;2022-12-10T06:13:32;97008.78;;;-2.27;100.00
61039;BME280;46919;45.816;3.104;2022-12-10T06:15:57;97015.44;;;-2.31;100.00
61039;BME280;46919;45.816;3.104;2022-12-10T06:18:22;97019.53;;;-2.29;100.00
61039;BME280;46919;45.816;3.104;2022-12-10T06:20:48;97024.34;;;-2.24;100.00
61039;BME280;46919;45.816;3.104;2022-12-10T06:23:13;97030.13;;;-2.29;100.00
61039;BME280;46919;45.816;3.104;2022-12-10T06:25:39;97026.50;;;-2.28;100.00
61039;BME280;46919;45.816;3.104;2022-12-10T06:28:06;97041.56;;;-2.28;100.00
61039;BME280;46919;45.816;3.104;2022-12-10T06:30:32;97040.88;;;-2.30;100.00
61039;BME280;46919;45.816;3.104;2022-12-10T06:32:58;97047.69;;;-2.28;100.00
61039;BME280;46919;45.816;3.104;2022-12-10T06:35:24;97050.47;;;-2.29;100.00
61039;BME280;46919;45.816;3.104;2022-12-10T06:37:49;97059.41;;;-2.30;100.00
61039;BME280;46919;45.816;3.104;2022-12-10T06:40:16;97063.41;;;-2.26;100.00
61039;BME280;46919;45.816;3.104;2022-12-10T06:42:41;97068.03;;;-2.28;100.00
61039;BME280;46919;45.816;3.104;2022-12-10T06:45:07;97065.88;;;-2.33;100.00
61039;BME280;46919;45.816;3.104;2022-12-10T06:47:33;97064.38;;;-2.44;100.00
61039;BME280;46919;45.816;3.104;2022-12-10T06:49:58;97066.84;;;-2.34;100.00
61039;BME280;46919;45.816;3.104;2022-12-10T06:52:24;97073.97;;;-2.34;100.00
61039;BME280;46919;45.816;3.104;2022-12-10T06:54:49;97070.47;;;-2.35;100.00
61039;BME280;46919;45.816;3.104;2022-12-10T06:57:15;97082.25;;;-2.38;100.00
61039;BME280;46919;45.816;3.104;2022-12-10T06:59:40;97081.56;;;-2.40;100.00
61039;BME280;46919;45.816;3.104;2022-12-10T07:02:08;97090.16;;;-2.46;100.00
61039;BME280;46919;45.816;3.104;2022-12-10T07:04:34;97093.31;;;-2.42;100.00
61039;BME280;46919;45.816;3.104;2022-12-10T07:06:59;97103.56;;;-2.39;100.00
61039;BME280;46919;45.816;3.104;2022-12-10T07:09:24;97107.03;;;-2.39;100.00
61039;BME280;46919;45.816;3.104;2022-12-10T07:11:50;97110.50;;;-2.38;100.00
61039;BME280;46919;45.816;3.104;2022-12-10T07:14:16;97118.09;;;-2.43;100.00
61039;BME280;46919;45.816;3.104;2022-12-10T07:16:42;97124.72;;;-2.47;100.00
61039;BME280;46919;45.816;3.104;2022-12-10T07:19:09;97120.91;;;-2.45;100.00
61039;BME280;46919;45.816;3.104;2022-12-10T07:21:37;97125.22;;;-2.44;100.00
61039;BME280;46919;45.816;3.104;2022-12-10T07:24:13;97130.03;;;-2.39;100.00
61039;BME280;46919;45.816;3.104;2022-12-10T07:26:41;97136.16;;;-2.39;100.00
61039;BME280;46919;45.816;3.104;2022-12-10T07:29:12;97133.00;;;-2.34;100.00
61039;BME280;46919;45.816;3.104;2022-12-10T07:31:38;97139.44;;;-2.37;100.00
61039;BME280;46919;45.816;3.104;2022-12-10T07:34:04;97150.69;;;-2.43;100.00
61039;BME280;46919;45.816;3.104;2022-12-10T07:36:29;97147.38;;;-2.45;100.00
61039;BME280;46919;45.816;3.104;2022-12-10T07:38:55;97150.50;;;-2.41;100.00
61039;BME280;46919;45.816;3.104;2022-12-10T07:41:22;97150.34;;;-2.40;100.00
61039;BME280;46919;45.816;3.104;2022-12-10T07:43:48;97147.72;;;-2.40;100.00
61039;BME280;46919;45.816;3.104;2022-12-10T07:46:21;97142.47;;;-2.31;100.00
61039;BME280;46919;45.816;3.104;2022-12-10T07:48:47;97153.22;;;-2.25;100.00
61039;BME280;46919;45.816;3.104;2022-12-10T07:51:14;97150.91;;;-2.28;100.00
61039;BME280;46919;45.816;3.104;2022-12-10T07:53:41;97156.00;;;-2.34;100.00
61039;BME280;46919;45.816;3.104;2022-12-10T07:56:07;97161.66;;;-2.29;100.00
61039;BME280;46919;45.816;3.104;2022-12-10T07:58:33;97156.84;;;-2.26;100.00
61039;BME280;46919;45.816;3.104;2022-12-10T08:00:58;97162.47;;;-2.21;100.00
61039;BME280;46919;45.816;3.104;2022-12-10T08:03:23;97163.50;;;-2.13;100.00
61039;BME280;46919;45.816;3.104;2022-12-10T08:06:00;97176.06;;;-2.15;100.00
61039;BME280;46919;45.816;3.104;2022-12-10T08:08:25;97179.06;;;-2.10;100.00
61039;BME280;46919;45.816;3.104;2022-12-10T08:10:51;97171.13;;;-2.10;100.00
61039;BME280;46919;45.816;3.104;2022-12-10T08:13:16;97170.97;;;-2.09;100.00
61039;BME280;46919;45.816;3.104;2022-12-10T08:15:42;97181.56;;;-2.09;100.00
61039;BME280;46919;45.816;3.104;2022-12-10T08:18:07;97184.69;;;-2.05;100.00
61039;BME280;46919;45.816;3.104;2022-12-10T08:20:33;97174.91;;;-2.05;100.00
61039;BME280;46919;45.816;3.104;2022-12-10T08:22:58;97177.25;;;-2.02;100.00
61039;BME280;46919;45.816;3.104;2022-12-10T08:25:23;97174.25;;;-2.07;100.00
61039;BME280;46919;45.816;3.104;2022-12-10T08:27:49;97174.25;;;-2.07;100.00
61039;BME280;46919;45.816;3.104;2022-12-10T08:30:14;97179.56;;;-2.07;100.00
61039;BME280;46919;45.816;3.104;2022-12-10T08:32:39;97185.19;;;-2.10;100.00
61039;BME280;46919;45.816;3.104;2022-12-10T08:35:05;97189.50;;;-2.09;100.00
61039;BME280;46919;45.816;3.104;2022-12-10T08:37:30;97189.16;;;-2.06;100.00
61039;BME280;46919;45.816;3.104;2022-12-10T08:39:56;97190.16;;;-1.98;100.00
61039;BME280;46919;45.816;3.104;2022-12-10T08:42:21;97195.13;;;-2.04;100.00
61039;BME280;46919;45.816;3.104;2022-12-10T08:44:47;97196.09;;;-2.05;100.00
61039;BME280;46919;45.816;3.104;2022-12-10T08:47:12;97192.16;;;-2.01;100.00
61039;BME280;46919;45.816;3.104;2022-12-10T08:49:37;97192.16;;;-2.01;100.00
61039;BME280;46919;45.816;3.104;2022-12-10T08:52:03;97194.63;;;-1.99;100.00
61039;BME280;46919;45.816;3.104;2022-12-10T08:54:28;97191.34;;;-1.93;100.00
61039;BME280;46919;45.816;3.104;2022-12-10T08:56:54;97202.25;;;-2.04;100.00
61039;BME280;46919;45.816;3.104;2022-12-10T08:59:19;97199.75;;;-2.06;100.00
61039;BME280;46919;45.816;3.104;2022-12-10T09:01:44;97208.34;;;-2.04;100.00
61039;BME280;46919;45.816;3.104;2022-12-10T09:04:10;97203.56;;;-2.00;100.00
61039;BME280;46919;45.816;3.104;2022-12-10T09:06:38;97202.56;;;-1.99;100.00
61039;BME280;46919;45.816;3.104;2022-12-10T09:09:03;97203.75;;;-1.93;100.00
61039;BME280;46919;45.816;3.104;2022-12-10T09:11:32;97208.38;;;-1.95;100.00
61039;BME280;46919;45.816;3.104;2022-12-10T09:13:58;97213.84;;;-1.97;100.00
61039;BME280;46919;45.816;3.104;2022-12-10T09:16:33;97215.34;;;-1.94;100.00
61039;BME280;46919;45.816;3.104;2022-12-10T09:18:59;97216.63;;;-1.98;100.00
61039;BME280;46919;45.816;3.104;2022-12-10T09:21:25;97220.63;;;-1.94;100.00
61039;BME280;46919;45.816;3.104;2022-12-10T09:23:51;97229.94;;;-1.90;100.00
61039;BME280;46919;45.816;3.104;2022-12-10T09:26:18;97225.94;;;-1.86;100.00
61039;BME280;46919;45.816;3.104;2022-12-10T09:28:45;97237.03;;;-1.83;100.00
61039;BME280;46919;45.816;3.104;2022-12-10T09:31:13;97241.50;;;-1.83;100.00
61039;BME280;46919;45.816;3.104;2022-12-10T09:33:39;97253.09;;;-1.84;100.00
61039;BME280;46919;45.816;3.104;2022-12-10T09:36:06;97244.00;;;-1.82;100.00
61039;BME280;46919;45.816;3.104;2022-12-10T09:38:36;97237.72;;;-1.80;100.00
61039;BME280;46919;45.816;3.104;2022-12-10T09:41:05;97239.72;;;-1.74;100.00
61039;BME280;46919;45.816;3.104;2022-12-10T09:46:39;97252.47;;;-1.70;99.29
61039;BME280;46919;45.816;3.104;2022-12-10T09:49:15;97253.78;;;-1.66;98.70
61039;BME280;46919;45.816;3.104;2022-12-10T09:51:44;97255.47;;;-1.65;98.23
61039;BME280;46919;45.816;3.104;2022-12-10T09:54:19;97260.75;;;-1.56;99.38
61039;BME280;46919;45.816;3.104;2022-12-10T09:56:50;97262.44;;;-1.55;99.26
61039;BME280;46919;45.816;3.104;2022-12-10T09:59:34;97261.59;;;-1.48;99.18
61039;BME280;46919;45.816;3.104;2022-12-10T10:02:21;97265.41;;;-1.42;98.31
61039;BME280;46919;45.816;3.104;2022-12-10T10:04:48;97267.41;;;-1.44;98.28
61039;BME280;46919;45.816;3.104;2022-12-10T10:07:23;97263.41;;;-1.48;98.47
61039;BME280;46919;45.816;3.104;2022-12-10T10:09:51;97269.06;;;-1.43;97.60
61039;BME280;46919;45.816;3.104;2022-12-10T10:12:20;97262.44;;;-1.47;98.03
61039;BME280;46919;45.816;3.104;2022-12-10T10:14:45;97270.22;;;-1.46;97.53
61039;BME280;46919;45.816;3.104;2022-12-10T10:17:17;97273.84;;;-1.47;98.52
61039;BME280;46919;45.816;3.104;2022-12-10T10:19:44;97267.41;;;-1.44;98.27
61039;BME280;46919;45.816;3.104;2022-12-10T10:22:10;97272.38;;;-1.41;97.42
61039;BME280;46919;45.816;3.104;2022-12-10T10:24:42;97264.44;;;-1.41;97.71
61039;BME280;46919;45.816;3.104;2022-12-10T10:27:20;97260.44;;;-1.37;97.64
61039;BME280;46919;45.816;3.104;2022-12-10T10:29:49;97270.38;;;-1.39;98.15
61039;BME280;46919;45.816;3.104;2022-12-10T10:35:03;97262.59;;;-1.40;97.94
61039;BME280;46919;45.816;3.104;2022-12-10T10:37:40;97261.13;;;-1.35;98.56
61039;BME280;46919;45.816;3.104;2022-12-10T10:40:21;97263.09;;;-1.37;98.30
61039;BME280;46919;45.816;3.104;2022-12-10T10:42:48;97259.31;;;-1.34;98.60
61039;BME280;46919;45.816;3.104;2022-12-10T10:45:33;97261.94;;;-1.18;97.58
61039;BME280;46919;45.816;3.104;2022-12-10T10:50:37;97259.81;;;-1.14;97.40
61039;BME280;46919;45.816;3.104;2022-12-10T10:53:25;97254.50;;;-1.14;97.68
61039;BME280;46919;45.816;3.104;2022-12-10T10:55:54;97256.81;;;-1.03;98.25
61039;BME280;46919;45.816;3.104;2022-12-10T10:58:22;97257.63;;;-1.02;97.84
61039;BME280;46919;45.816;3.104;2022-12-10T11:01:05;97258.28;;;-1.00;97.07
61039;BME280;46919;45.816;3.104;2022-12-10T11:03:34;97252.00;;;-0.99;97.42
61039;BME280;46919;45.816;3.104;2022-12-10T11:06:00;97244.38;;;-1.02;95.00
61039;BME280;46919;45.816;3.104;2022-12-10T11:08:29;97244.88;;;-1.07;94.10
61039;BME280;46919;45.816;3.104;2022-12-10T11:11:22;97245.19;;;-1.02;94.23
61039;BME280;46919;45.816;3.104;2022-12-10T11:13:48;97255.13;;;-0.96;94.82
61039;BME280;46919;45.816;3.104;2022-12-10T11:16:24;97250.31;;;-1.00;93.56
61039;BME280;46919;45.816;3.104;2022-12-10T11:19:03;97243.22;;;-1.00;91.60
61039;BME280;46919;45.816;3.104;2022-12-10T11:21:32;97255.97;;;-1.03;92.74
61039;BME280;46919;45.816;3.104;2022-12-10T11:23:59;97261.44;;;-0.97;92.60
61039;BME280;46919;45.816;3.104;2022-12-10T11:26:49;97264.09;;;-0.97;91.63
61039;BME280;46919;45.816;3.104;2022-12-10T11:37:31;97262.91;;;-0.69;92.62
61039;BME280;46919;45.816;3.104;2022-12-10T11:48:16;97272.00;;;-0.72;91.73
61039;BME280;46919;45.816;3.104;2022-12-10T11:51:00;97275.31;;;-0.62;91.94
61039;BME280;46919;45.816;3.104;2022-12-10T11:56:44;97274.91;;;-0.34;90.36
61039;BME280;46919;45.816;3.104;2022-12-10T11:59:34;97271.59;;;-0.36;90.61
61039;BME280;46919;45.816;3.104;2022-12-10T12:08:25;97272.75;;;-0.39;90.20
61039;BME280;46919;45.816;3.104;2022-12-10T12:11:36;97266.00;;;-0.41;90.55
61039;BME280;46919;45.816;3.104;2022-12-10T12:13:51;97266.97;;;-0.42;90.48
61039;BME280;46919;45.816;3.104;2022-12-10T12:19:11;97267.94;;;-0.27;89.83
61039;BME280;46919;45.816;3.104;2022-12-10T12:21:40;97278.56;;;-0.35;89.53
61039;BME280;46919;45.816;3.104;2022-12-10T12:24:29;97277.88;;;-0.29;88.21
61039;BME280;46919;45.816;3.104;2022-12-10T12:27:04;97286.84;;;-0.30;88.18
61039;BME280;46919;45.816;3.104;2022-12-10T12:30:00;97283.34;;;-0.30;89.18
61039;BME280;46919;45.816;3.104;2022-12-10T12:32:38;97289.84;;;-0.33;89.59
61039;BME280;46919;45.816;3.104;2022-12-10T12:35:12;97304.47;;;-0.45;90.19
61039;BME280;46919;45.816;3.104;2022-12-10T12:37:44;97300.50;;;-0.58;90.65
61039;BME280;46919;45.816;3.104;2022-12-10T12:40:15;97291.72;;;-0.58;90.97
61039;BME280;46919;45.816;3.104;2022-12-10T12:43:13;97289.28;;;-0.68;89.34
61039;BME280;46919;45.816;3.104;2022-12-10T12:45:43;97287.25;;;-0.66;89.93
61039;BME280;46919;45.816;3.104;2022-12-10T12:48:30;97286.94;;;-0.63;91.02
61039;BME280;46919;45.816;3.104;2022-12-10T12:51:03;97290.91;;;-0.67;91.02
61039;BME280;46919;45.816;3.104;2022-12-10T12:53:30;97287.94;;;-0.72;90.62
61039;BME280;46919;45.816;3.104;2022-12-10T12:58:41;97288.91;;;-0.73;90.76
61039;BME280;46919;45.816;3.104;2022-12-10T13:01:43;97302.84;;;-0.63;91.20
61039;BME280;46919;45.816;3.104;2022-12-10T13:04:13;97303.00;;;-0.56;90.73
61039;BME280;46919;45.816;3.104;2022-12-10T13:06:40;97312.13;;;-0.50;89.84
61039;BME280;46919;45.816;3.104;2022-12-10T13:11:43;97307.97;;;-0.53;88.05
61039;BME280;46919;45.816;3.104;2022-12-10T13:21:59;97309.84;;;-0.62;87.47
61039;BME280;46919;45.816;3.104;2022-12-10T13:29:28;97311.13;;;-0.58;87.86
61039;BME280;46919;45.816;3.104;2022-12-10T13:32:04;97318.44;;;-0.60;86.12
61039;BME280;46919;45.816;3.104;2022-12-10T13:34:38;97324.09;;;-0.63;85.89
61039;BME280;46919;45.816;3.104;2022-12-10T13:37:14;97317.28;;;-0.57;85.63
61039;BME280;46919;45.816;3.104;2022-12-10T13:42:37;97318.09;;;-0.57;86.54
61039;BME280;46919;45.816;3.104;2022-12-10T13:47:53;97324.72;;;-0.52;86.62
61039;BME280;46919;45.816;3.104;2022-12-10T13:55:38;97320.75;;;-0.48;87.72
61039;BME280;46919;45.816;3.104;2022-12-10T14:04:16;97333.56;;;-0.60;88.06
61039;BME280;46919;45.816;3.104;2022-12-10T14:06:47;97338.00;;;-0.61;88.66
61039;BME280;46919;45.816;3.104;2022-12-10T14:09:49;97331.91;;;-0.78;87.91
61039;BME280;46919;45.816;3.104;2022-12-10T14:12:20;97331.72;;;-0.84;89.18
61039;BME280;46919;45.816;3.104;2022-12-10T14:15:01;97336.69;;;-0.81;89.88
61039;BME280;46919;45.816;3.104;2022-12-10T14:17:33;97336.22;;;-0.85;90.25
61039;BME280;46919;45.816;3.104;2022-12-10T14:20:02;97340.69;;;-0.85;89.99
61039;BME280;46919;45.816;3.104;2022-12-10T14:22:37;97340.69;;;-0.85;89.50
61039;BME280;46919;45.816;3.104;2022-12-10T14:25:11;97342.69;;;-0.79;89.81
61039;BME280;46919;45.816;3.104;2022-12-10T14:27:38;97354.59;;;-0.75;89.73
61039;BME280;46919;45.816;3.104;2022-12-10T14:32:43;97338.84;;;-0.68;89.42
61039;BME280;46919;45.816;3.104;2022-12-10T14:35:14;97339.00;;;-0.70;89.82